sensor_id;sensor_type;location;lat;lon;timestamp;temperature;humidity
52787;DHT22;38661;53.152;5.846;2023-04-01T00:02:01;10.00;96.50
52787;DHT22;38661;53.152;5.846;2023-04-01T00:04:27;10.00;96.50
52787;DHT22;38661;53.152;5.846;2023-04-01T00:06:53;10.00;96.50
52787;DHT22;38661;53.152;5.846;2023-04-01T00:09:18;10.00;96.50
52787;DHT22;38661;53.152;5.846;2023-04-01T00:11:44;10.00;96.40
52787;DHT22;38661;53.152;5.846;2023-04-01T00:14:11;10.00;96.40
52787;DHT22;38661;53.152;5.846;2023-04-01T00:16:37;10.00;96.50
52787;DHT22;38661;53.152;5.846;2023-04-01T00:19:02;9.90;96.50
52787;DHT22;38661;53.152;5.846;2023-04-01T00:21:28;9.90;96.50
52787;DHT22;38661;53.152;5.846;2023-04-01T00:23:54;9.90;96.60
52787;DHT22;38661;53.152;5.846;2023-04-01T00:26:20;9.90;96.70
52787;DHT22;38661;53.152;5.846;2023-04-01T00:28:47;9.90;96.80
52787;DHT22;38661;53.152;5.846;2023-04-01T00:31:13;9.80;96.80
52787;DHT22;38661;53.152;5.846;2023-04-01T00:33:40;9.90;96.90
52787;DHT22;38661;53.152;5.846;2023-04-01T00:38:34;9.80;96.90
52787;DHT22;38661;53.152;5.846;2023-04-01T00:41:00;9.80;96.90
52787;DHT22;38661;53.152;5.846;2023-04-01T00:43:26;9.80;96.90
52787;DHT22;38661;53.152;5.846;2023-04-01T00:45:51;9.90;96.90
52787;DHT22;38661;53.152;5.846;2023-04-01T00:48:20;9.90;96.90
52787;DHT22;38661;53.152;5.846;2023-04-01T00:50:54;9.80;97.00
52787;DHT22;38661;53.152;5.846;2023-04-01T00:53:21;9.90;97.00
52787;DHT22;38661;53.152;5.846;2023-04-01T00:56:01;9.80;97.00
52787;DHT22;38661;53.152;5.846;2023-04-01T00:58:32;9.80;97.00
52787;DHT22;38661;53.152;5.846;2023-04-01T01:00:59;9.80;97.10
52787;DHT22;38661;53.152;5.846;2023-04-01T01:03:26;9.80;97.10
52787;DHT22;38661;53.152;5.846;2023-04-01T01:11:14;9.80;97.00
52787;DHT22;38661;53.152;5.846;2023-04-01T01:13:58;9.80;97.10
52787;DHT22;38661;53.152;5.846;2023-04-01T01:16:31;9.80;97.00
52787;DHT22;38661;53.152;5.846;2023-04-01T01:27:11;9.80;97.00
52787;DHT22;38661;53.152;5.846;2023-04-01T01:37:29;9.80;97.00
52787;DHT22;38661;53.152;5.846;2023-04-01T01:40:00;9.80;97.10
52787;DHT22;38661;53.152;5.846;2023-04-01T01:42:28;9.80;97.00
52787;DHT22;38661;53.152;5.846;2023-04-01T01:44:56;9.90;97.00
52787;DHT22;38661;53.152;5.846;2023-04-01T01:47:26;9.90;97.10
52787;DHT22;38661;53.152;5.846;2023-04-01T01:49:53;9.90;97.00
52787;DHT22;38661;53.152;5.846;2023-04-01T01:52:21;9.90;96.90
52787;DHT22;38661;53.152;5.846;2023-04-01T01:54:52;9.90;96.90
52787;DHT22;38661;53.152;5.846;2023-04-01T01:57:25;9.90;96.90
52787;DHT22;38661;53.152;5.846;2023-04-01T01:59:55;9.90;96.80
52787;DHT22;38661;53.152;5.846;2023-04-01T02:02:22;9.90;96.90
52787;DHT22;38661;53.152;5.846;2023-04-01T02:04:49;9.90;96.80
52787;DHT22;38661;53.152;5.846;2023-04-01T02:07:25;9.90;96.80
52787;DHT22;38661;53.152;5.846;2023-04-01T02:09:53;10.00;96.70
52787;DHT22;38661;53.152;5.846;2023-04-01T02:12:19;9.90;96.80
52787;DHT22;38661;53.152;5.846;2023-04-01T02:15:09;9.90;96.80
52787;DHT22;38661;53.152;5.846;2023-04-01T02:17:40;10.00;96.80
52787;DHT22;38661;53.152;5.846;2023-04-01T02:20:15;10.00;96.80
52787;DHT22;38661;53.152;5.846;2023-04-01T02:22:46;10.00;96.70
52787;DHT22;38661;53.152;5.846;2023-04-01T02:25:17;10.00;96.80
52787;DHT22;38661;53.152;5.846;2023-04-01T02:27:44;10.00;96.70
52787;DHT22;38661;53.152;5.846;2023-04-01T02:30:11;9.90;96.70
52787;DHT22;38661;53.152;5.846;2023-04-01T02:32:38;10.00;96.70
52787;DHT22;38661;53.152;5.846;2023-04-01T02:35:10;10.00;96.70
52787;DHT22;38661;53.152;5.846;2023-04-01T02:37:38;9.90;96.70
52787;DHT22;38661;53.152;5.846;2023-04-01T02:40:06;10.00;96.70
52787;DHT22;38661;53.152;5.846;2023-04-01T02:42:33;10.00;96.70
52787;DHT22;38661;53.152;5.846;2023-04-01T02:44:59;10.00;96.80
52787;DHT22;38661;53.152;5.846;2023-04-01T02:47:25;10.00;96.80
52787;DHT22;38661;53.152;5.846;2023-04-01T02:49:50;10.00;96.80
52787;DHT22;38661;53.152;5.846;2023-04-01T02:52:16;10.00;96.80
52787;DHT22;38661;53.152;5.846;2023-04-01T02:54:42;10.00;96.80
52787;DHT22;38661;53.152;5.846;2023-04-01T02:57:07;10.00;96.90
52787;DHT22;38661;53.152;5.846;2023-04-01T02:59:33;10.00;96.70
52787;DHT22;38661;53.152;5.846;2023-04-01T03:01:59;10.00;96.70
52787;DHT22;38661;53.152;5.846;2023-04-01T03:04:24;10.00;96.70
52787;DHT22;38661;53.152;5.846;2023-04-01T03:06:50;10.00;96.70
52787;DHT22;38661;53.152;5.846;2023-04-01T03:09:16;10.00;96.80
52787;DHT22;38661;53.152;5.846;2023-04-01T03:11:42;10.00;96.90
52787;DHT22;38661;53.152;5.846;2023-04-01T03:14:08;10.00;96.90
52787;DHT22;38661;53.152;5.846;2023-04-01T03:16:33;9.90;96.90
52787;DHT22;38661;53.152;5.846;2023-04-01T03:18:59;10.00;96.90
52787;DHT22;38661;53.152;5.846;2023-04-01T03:21:27;9.90;96.90
52787;DHT22;38661;53.152;5.846;2023-04-01T03:23:53;9.90;96.90
52787;DHT22;38661;53.152;5.846;2023-04-01T03:26:19;9.90;96.90
52787;DHT22;38661;53.152;5.846;2023-04-01T03:28:45;9.90;96.90
52787;DHT22;38661;53.152;5.846;2023-04-01T03:31:11;9.90;96.90
52787;DHT22;38661;53.152;5.846;2023-04-01T03:33:37;9.90;96.90
52787;DHT22;38661;53.152;5.846;2023-04-01T03:36:03;9.90;96.80
52787;DHT22;38661;53.152;5.846;2023-04-01T03:38:32;9.90;96.90
52787;DHT22;38661;53.152;5.846;2023-04-01T03:40:58;9.90;96.70
52787;DHT22;38661;53.152;5.846;2023-04-01T03:43:24;9.90;96.70
52787;DHT22;38661;53.152;5.846;2023-04-01T03:45:51;9.90;96.70
52787;DHT22;38661;53.152;5.846;2023-04-01T03:48:17;9.90;96.80
52787;DHT22;38661;53.152;5.846;2023-04-01T03:50:44;9.90;96.70
52787;DHT22;38661;53.152;5.846;2023-04-01T03:53:10;9.90;96.70
52787;DHT22;38661;53.152;5.846;2023-04-01T03:55:36;9.90;96.70
52787;DHT22;38661;53.152;5.846;2023-04-01T03:58:03;9.90;96.70
52787;DHT22;38661;53.152;5.846;2023-04-01T04:00:30;9.90;96.70
52787;DHT22;38661;53.152;5.846;2023-04-01T04:02:56;9.90;96.70
52787;DHT22;38661;53.152;5.846;2023-04-01T04:05:25;9.90;96.60
52787;DHT22;38661;53.152;5.846;2023-04-01T04:07:51;9.90;96.60
52787;DHT22;38661;53.152;5.846;2023-04-01T04:10:18;9.90;96.60
52787;DHT22;38661;53.152;5.846;2023-04-01T04:12:44;9.90;96.60
52787;DHT22;38661;53.152;5.846;2023-04-01T04:15:10;9.90;96.60
52787;DHT22;38661;53.152;5.846;2023-04-01T04:17:35;9.90;96.60
52787;DHT22;38661;53.152;5.846;2023-04-01T04:20:02;9.90;96.60
52787;DHT22;38661;53.152;5.846;2023-04-01T04:22:27;9.90;96.60
52787;DHT22;38661;53.152;5.846;2023-04-01T04:24:53;9.90;96.60
52787;DHT22;38661;53.152;5.846;2023-04-01T04:27:19;9.90;96.60
52787;DHT22;38661;53.152;5.846;2023-04-01T04:29:45;9.90;96.60
52787;DHT22;38661;53.152;5.846;2023-04-01T04:32:10;9.90;96.50
52787;DHT22;38661;53.152;5.846;2023-04-01T04:34:36;10.00;96.50
52787;DHT22;38661;53.152;5.846;2023-04-01T04:37:02;9.90;96.60
52787;DHT22;38661;53.152;5.846;2023-04-01T04:39:29;9.90;96.60
52787;DHT22;38661;53.152;5.846;2023-04-01T04:41:54;9.90;96.60
52787;DHT22;38661;53.152;5.846;2023-04-01T04:44:20;9.90;96.60
52787;DHT22;38661;53.152;5.846;2023-04-01T04:46:46;9.90;96.50
52787;DHT22;38661;53.152;5.846;2023-04-01T04:49:12;9.90;96.50
52787;DHT22;38661;53.152;5.846;2023-04-01T04:51:38;9.90;96.50
52787;DHT22;38661;53.152;5.846;2023-04-01T04:54:04;9.90;96.50
52787;DHT22;38661;53.152;5.846;2023-04-01T04:56:30;9.90;96.60
52787;DHT22;38661;53.152;5.846;2023-04-01T04:58:56;9.90;96.50
52787;DHT22;38661;53.152;5.846;2023-04-01T05:01:22;9.90;96.50
52787;DHT22;38661;53.152;5.846;2023-04-01T05:03:48;9.90;96.60
52787;DHT22;38661;53.152;5.846;2023-04-01T05:06:15;9.90;96.60
52787;DHT22;38661;53.152;5.846;2023-04-01T05:08:42;9.90;96.50
52787;DHT22;38661;53.152;5.846;2023-04-01T05:11:19;9.90;96.50
52787;DHT22;38661;53.152;5.846;2023-04-01T05:13:45;9.90;96.60
52787;DHT22;38661;53.152;5.846;2023-04-01T05:16:17;9.90;96.50
52787;DHT22;38661;53.152;5.846;2023-04-01T05:18:43;9.90;96.50
52787;DHT22;38661;53.152;5.846;2023-04-01T05:21:11;9.90;96.60
52787;DHT22;38661;53.152;5.846;2023-04-01T05:23:37;9.90;96.60
52787;DHT22;38661;53.152;5.846;2023-04-01T05:26:08;9.90;96.50
52787;DHT22;38661;53.152;5.846;2023-04-01T05:28:34;9.90;96.60
52787;DHT22;38661;53.152;5.846;2023-04-01T05:31:01;9.90;96.60
52787;DHT22;38661;53.152;5.846;2023-04-01T05:33:27;9.90;96.50
52787;DHT22;38661;53.152;5.846;2023-04-01T05:35:54;9.90;96.50
52787;DHT22;38661;53.152;5.846;2023-04-01T05:38:20;9.90;96.50
52787;DHT22;38661;53.152;5.846;2023-04-01T05:40:45;9.90;96.50
52787;DHT22;38661;53.152;5.846;2023-04-01T05:43:11;9.90;96.50
52787;DHT22;38661;53.152;5.846;2023-04-01T05:45:37;10.00;96.50
52787;DHT22;38661;53.152;5.846;2023-04-01T05:48:03;10.00;96.50
52787;DHT22;38661;53.152;5.846;2023-04-01T05:50:29;10.00;96.50
52787;DHT22;38661;53.152;5.846;2023-04-01T05:52:55;10.00;96.40
52787;DHT22;38661;53.152;5.846;2023-04-01T05:55:21;9.90;96.40
52787;DHT22;38661;53.152;5.846;2023-04-01T05:57:47;9.90;96.50
52787;DHT22;38661;53.152;5.846;2023-04-01T06:00:15;9.90;96.40
52787;DHT22;38661;53.152;5.846;2023-04-01T06:02:41;10.00;96.40
52787;DHT22;38661;53.152;5.846;2023-04-01T06:05:21;10.00;96.40
52787;DHT22;38661;53.152;5.846;2023-04-01T06:07:47;10.00;96.40
52787;DHT22;38661;53.152;5.846;2023-04-01T06:10:18;10.00;96.40
52787;DHT22;38661;53.152;5.846;2023-04-01T06:16:07;10.00;96.30
52787;DHT22;38661;53.152;5.846;2023-04-01T06:22:02;10.00;96.30
52787;DHT22;38661;53.152;5.846;2023-04-01T06:24:49;10.00;96.40
52787;DHT22;38661;53.152;5.846;2023-04-01T06:33:14;10.00;96.30
52787;DHT22;38661;53.152;5.846;2023-04-01T06:51:25;10.00;96.30
52787;DHT22;38661;53.152;5.846;2023-04-01T06:54:03;10.10;96.30
52787;DHT22;38661;53.152;5.846;2023-04-01T06:56:32;10.00;96.40
52787;DHT22;38661;53.152;5.846;2023-04-01T06:59:05;10.10;96.30
52787;DHT22;38661;53.152;5.846;2023-04-01T07:01:42;10.10;96.30
52787;DHT22;38661;53.152;5.846;2023-04-01T07:04:20;10.10;96.30
52787;DHT22;38661;53.152;5.846;2023-04-01T07:09:55;10.10;96.30
52787;DHT22;38661;53.152;5.846;2023-04-01T07:14:58;10.10;96.30
52787;DHT22;38661;53.152;5.846;2023-04-01T07:17:33;10.10;96.40
52787;DHT22;38661;53.152;5.846;2023-04-01T07:20:11;10.10;96.30
52787;DHT22;38661;53.152;5.846;2023-04-01T07:22:48;10.10;96.30
52787;DHT22;38661;53.152;5.846;2023-04-01T07:25:17;10.10;96.30
52787;DHT22;38661;53.152;5.846;2023-04-01T07:27:44;10.10;96.30
52787;DHT22;38661;53.152;5.846;2023-04-01T07:30:22;10.10;96.30
52787;DHT22;38661;53.152;5.846;2023-04-01T07:40:43;10.20;96.40
52787;DHT22;38661;53.152;5.846;2023-04-01T07:43:28;10.20;96.40
52787;DHT22;38661;53.152;5.846;2023-04-01T07:49:17;10.20;96.40
52787;DHT22;38661;53.152;5.846;2023-04-01T07:52:06;10.30;96.40
52787;DHT22;38661;53.152;5.846;2023-04-01T07:54:49;10.40;96.40
52787;DHT22;38661;53.152;5.846;2023-04-01T08:03:13;10.40;96.30
52787;DHT22;38661;53.152;5.846;2023-04-01T08:06:08;10.40;96.30
52787;DHT22;38661;53.152;5.846;2023-04-01T08:14:21;10.50;96.30
52787;DHT22;38661;53.152;5.846;2023-04-01T08:22:07;10.70;96.00
52787;DHT22;38661;53.152;5.846;2023-04-01T08:24:42;10.70;95.90
52787;DHT22;38661;53.152;5.846;2023-04-01T08:27:34;10.70;95.90
52787;DHT22;38661;53.152;5.846;2023-04-01T08:32:37;10.70;95.90
52787;DHT22;38661;53.152;5.846;2023-04-01T08:35:21;10.70;95.80
52787;DHT22;38661;53.152;5.846;2023-04-01T08:37:50;10.70;95.80
52787;DHT22;38661;53.152;5.846;2023-04-01T08:40:46;10.70;95.70
52787;DHT22;38661;53.152;5.846;2023-04-01T08:46:27;10.80;95.50
52787;DHT22;38661;53.152;5.846;2023-04-01T08:51:53;10.90;95.80
52787;DHT22;38661;53.152;5.846;2023-04-01T08:54:38;11.00;95.60
52787;DHT22;38661;53.152;5.846;2023-04-01T08:59:57;11.00;95.50
52787;DHT22;38661;53.152;5.846;2023-04-01T09:09:09;11.10;95.00
52787;DHT22;38661;53.152;5.846;2023-04-01T09:15:01;11.30;94.80
52787;DHT22;38661;53.152;5.846;2023-04-01T09:22:57;11.40;94.60
52787;DHT22;38661;53.152;5.846;2023-04-01T09:26:07;11.40;94.50
52787;DHT22;38661;53.152;5.846;2023-04-01T09:34:22;11.40;94.30
52787;DHT22;38661;53.152;5.846;2023-04-01T09:37:18;11.40;94.30
52787;DHT22;38661;53.152;5.846;2023-04-01T09:42:43;11.40;94.00
52787;DHT22;38661;53.152;5.846;2023-04-01T09:50:50;11.30;93.40
52787;DHT22;38661;53.152;5.846;2023-04-01T09:56:39;11.30;93.50
52787;DHT22;38661;53.152;5.846;2023-04-01T10:16:23;11.20;93.40
52787;DHT22;38661;53.152;5.846;2023-04-01T10:21:55;11.30;93.50
52787;DHT22;38661;53.152;5.846;2023-04-01T10:27:06;11.40;93.40
52787;DHT22;38661;53.152;5.846;2023-04-01T11:06:37;11.50;92.50
52787;DHT22;38661;53.152;5.846;2023-04-01T11:23:18;11.50;91.50
52787;DHT22;38661;53.152;5.846;2023-04-01T11:28:47;11.40;91.50
52787;DHT22;38661;53.152;5.846;2023-04-01T11:31:37;11.50;91.70
52787;DHT22;38661;53.152;5.846;2023-04-01T11:39:57;11.40;91.40
52787;DHT22;38661;53.152;5.846;2023-04-01T11:56:38;11.50;91.10
52787;DHT22;38661;53.152;5.846;2023-04-01T12:04:49;11.40;90.90
52787;DHT22;38661;53.152;5.846;2023-04-01T12:09:58;11.30;91.00
52787;DHT22;38661;53.152;5.846;2023-04-01T12:18:10;11.20;90.50
52787;DHT22;38661;53.152;5.846;2023-04-01T12:43:54;11.20;90.70
52787;DHT22;38661;53.152;5.846;2023-04-01T12:55:18;11.10;90.50
52787;DHT22;38661;53.152;5.846;2023-04-01T13:08:24;11.00;90.10
52787;DHT22;38661;53.152;5.846;2023-04-01T13:11:07;11.00;90.20
52787;DHT22;38661;53.152;5.846;2023-04-01T13:13:38;11.00;90.20
52787;DHT22;38661;53.152;5.846;2023-04-01T13:16:16;11.00;90.40
52787;DHT22;38661;53.152;5.846;2023-04-01T13:24:14;11.00;90.00
52787;DHT22;38661;53.152;5.846;2023-04-01T13:35:26;11.00;89.50
52787;DHT22;38661;53.152;5.846;2023-04-01T13:38:23;11.00;89.60
52787;DHT22;38661;53.152;5.846;2023-04-01T13:41:18;10.90;89.60
52787;DHT22;38661;53.152;5.846;2023-04-01T13:44:12;10.90;89.60
52787;DHT22;38661;53.152;5.846;2023-04-01T13:57:48;10.70;89.40
52787;DHT22;38661;53.152;5.846;2023-04-01T14:00:35;10.60;89.70
52787;DHT22;38661;53.152;5.846;2023-04-01T14:03:27;10.60;89.60
52787;DHT22;38661;53.152;5.846;2023-04-01T14:06:19;10.60;89.70
52787;DHT22;38661;53.152;5.846;2023-04-01T14:11:53;10.50;89.60
52787;DHT22;38661;53.152;5.846;2023-04-01T14:14:36;10.50;89.80
52787;DHT22;38661;53.152;5.846;2023-04-01T14:50:44;10.20;89.70
52787;DHT22;38661;53.152;5.846;2023-04-01T14:55:53;10.10;89.70
52787;DHT22;38661;53.152;5.846;2023-04-01T14:58:21;10.00;89.30
52787;DHT22;38661;53.152;5.846;2023-04-01T15:03:46;10.00;89.20
52787;DHT22;38661;53.152;5.846;2023-04-01T15:06:39;9.90;89.10
52787;DHT22;38661;53.152;5.846;2023-04-01T15:12:30;9.80;89.50
52787;DHT22;38661;53.152;5.846;2023-04-01T15:15:21;9.80;89.40
52787;DHT22;38661;53.152;5.846;2023-04-01T15:18:03;9.70;89.20
52787;DHT22;38661;53.152;5.846;2023-04-01T15:21:01;9.60;89.40
52787;DHT22;38661;53.152;5.846;2023-04-01T15:29:59;9.70;89.60
52787;DHT22;38661;53.152;5.846;2023-04-01T15:38:35;9.50;89.10
52787;DHT22;38661;53.152;5.846;2023-04-01T15:41:24;9.40;89.70
52787;DHT22;38661;53.152;5.846;2023-04-01T15:43:53;9.50;89.90
52787;DHT22;38661;53.152;5.846;2023-04-01T15:46:45;9.50;89.90
52787;DHT22;38661;53.152;5.846;2023-04-01T15:49:39;9.40;90.00
52787;DHT22;38661;53.152;5.846;2023-04-01T15:52:22;9.40;89.80
52787;DHT22;38661;53.152;5.846;2023-04-01T16:00:30;9.30;90.10
52787;DHT22;38661;53.152;5.846;2023-04-01T16:06:13;9.30;90.00
52787;DHT22;38661;53.152;5.846;2023-04-01T16:21:00;9.10;89.70
52787;DHT22;38661;53.152;5.846;2023-04-01T16:25:51;8.90;89.40
52787;DHT22;38661;53.152;5.846;2023-04-01T16:28:42;8.90;89.70
52787;DHT22;38661;53.152;5.846;2023-04-01T16:31:35;8.80;89.70
52787;DHT22;38661;53.152;5.846;2023-04-01T16:34:16;8.80;89.70
52787;DHT22;38661;53.152;5.846;2023-04-01T16:37:00;8.70;89.50
52787;DHT22;38661;53.152;5.846;2023-04-01T16:39:52;8.70;90.00
52787;DHT22;38661;53.152;5.846;2023-04-01T16:42:40;8.60;89.70
52787;DHT22;38661;53.152;5.846;2023-04-01T16:50:22;8.60;90.10
52787;DHT22;38661;53.152;5.846;2023-04-01T16:55:45;8.60;89.80
52787;DHT22;38661;53.152;5.846;2023-04-01T16:58:26;8.40;89.40
52787;DHT22;38661;53.152;5.846;2023-04-01T17:01:14;8.40;90.00
52787;DHT22;38661;53.152;5.846;2023-04-01T17:03:45;8.40;90.20
52787;DHT22;38661;53.152;5.846;2023-04-01T17:14:16;8.40;90.30
52787;DHT22;38661;53.152;5.846;2023-04-01T17:17:13;8.30;90.40
52787;DHT22;38661;53.152;5.846;2023-04-01T17:19:54;8.40;90.50
52787;DHT22;38661;53.152;5.846;2023-04-01T17:22:39;8.30;90.50
52787;DHT22;38661;53.152;5.846;2023-04-01T17:25:38;8.30;90.40
52787;DHT22;38661;53.152;5.846;2023-04-01T17:33:31;8.10;89.90
52787;DHT22;38661;53.152;5.846;2023-04-01T17:36:19;8.10;90.00
52787;DHT22;38661;53.152;5.846;2023-04-01T17:52:27;8.10;90.50
52787;DHT22;38661;53.152;5.846;2023-04-01T17:57:49;8.10;90.90
52787;DHT22;38661;53.152;5.846;2023-04-01T18:00:26;8.10;90.80
52787;DHT22;38661;53.152;5.846;2023-04-01T18:06:20;7.90;90.70
52787;DHT22;38661;53.152;5.846;2023-04-01T18:14:44;7.80;90.90
52787;DHT22;38661;53.152;5.846;2023-04-01T18:17:32;7.80;91.00
52787;DHT22;38661;53.152;5.846;2023-04-01T18:22:59;7.50;90.60
52787;DHT22;38661;53.152;5.846;2023-04-01T18:25:41;7.50;90.60
52787;DHT22;38661;53.152;5.846;2023-04-01T18:31:05;7.50;90.80
52787;DHT22;38661;53.152;5.846;2023-04-01T18:33:56;7.50;90.60
52787;DHT22;38661;53.152;5.846;2023-04-01T18:39:22;7.50;90.50
52787;DHT22;38661;53.152;5.846;2023-04-01T18:42:06;7.50;90.70
52787;DHT22;38661;53.152;5.846;2023-04-01T18:44:54;7.50;90.70
52787;DHT22;38661;53.152;5.846;2023-04-01T18:50:23;7.50;90.70
52787;DHT22;38661;53.152;5.846;2023-04-01T18:52:58;7.50;90.60
52787;DHT22;38661;53.152;5.846;2023-04-01T18:55:41;7.50;90.60
52787;DHT22;38661;53.152;5.846;2023-04-01T18:58:21;7.50;90.60
52787;DHT22;38661;53.152;5.846;2023-04-01T19:05:53;7.40;90.50
52787;DHT22;38661;53.152;5.846;2023-04-01T19:08:47;7.50;90.40
52787;DHT22;38661;53.152;5.846;2023-04-01T19:11:28;7.40;90.60
52787;DHT22;38661;53.152;5.846;2023-04-01T19:14:16;7.30;90.30
52787;DHT22;38661;53.152;5.846;2023-04-01T19:17:03;7.30;90.20
52787;DHT22;38661;53.152;5.846;2023-04-01T19:27:52;7.30;90.40
52787;DHT22;38661;53.152;5.846;2023-04-01T19:30:39;7.30;90.20
52787;DHT22;38661;53.152;5.846;2023-04-01T19:38:41;7.10;89.80
52787;DHT22;38661;53.152;5.846;2023-04-01T19:44:12;7.10;90.30
52787;DHT22;38661;53.152;5.846;2023-04-01T19:46:49;7.10;90.20
52787;DHT22;38661;53.152;5.846;2023-04-01T19:49:47;7.00;90.20
52787;DHT22;38661;53.152;5.846;2023-04-01T20:00:51;6.90;90.00
52787;DHT22;38661;53.152;5.846;2023-04-01T20:03:43;7.00;90.20
52787;DHT22;38661;53.152;5.846;2023-04-01T20:08:54;6.90;90.20
52787;DHT22;38661;53.152;5.846;2023-04-01T20:11:38;6.80;89.70
52787;DHT22;38661;53.152;5.846;2023-04-01T20:17:44;6.90;90.20
52787;DHT22;38661;53.152;5.846;2023-04-01T20:27:51;6.80;90.00
52787;DHT22;38661;53.152;5.846;2023-04-01T20:30:49;6.80;90.00
52787;DHT22;38661;53.152;5.846;2023-04-01T20:39:00;6.70;89.70
52787;DHT22;38661;53.152;5.846;2023-04-01T20:46:37;6.70;90.20
52787;DHT22;38661;53.152;5.846;2023-04-01T20:49:33;6.80;89.90
52787;DHT22;38661;53.152;5.846;2023-04-01T20:52:32;6.70;90.20
52787;DHT22;38661;53.152;5.846;2023-04-01T20:55:21;6.70;90.20
52787;DHT22;38661;53.152;5.846;2023-04-01T21:01:04;6.60;89.60
52787;DHT22;38661;53.152;5.846;2023-04-01T21:09:25;6.60;90.20
52787;DHT22;38661;53.152;5.846;2023-04-01T21:12:59;6.60;90.20
52787;DHT22;38661;53.152;5.846;2023-04-01T21:15:31;6.50;90.00
52787;DHT22;38661;53.152;5.846;2023-04-01T21:21:04;6.50;89.90
52787;DHT22;38661;53.152;5.846;2023-04-01T21:23:38;6.50;90.20
52787;DHT22;38661;53.152;5.846;2023-04-01T21:26:30;6.50;90.10
52787;DHT22;38661;53.152;5.846;2023-04-01T21:30:04;6.50;89.90
52787;DHT22;38661;53.152;5.846;2023-04-01T21:38:14;6.50;89.20
52787;DHT22;38661;53.152;5.846;2023-04-01T21:41:02;6.50;89.50
52787;DHT22;38661;53.152;5.846;2023-04-01T22:14:20;6.20;89.10
52787;DHT22;38661;53.152;5.846;2023-04-01T22:17:28;6.10;88.30
52787;DHT22;38661;53.152;5.846;2023-04-01T22:19:57;6.10;89.10
52787;DHT22;38661;53.152;5.846;2023-04-01T22:22:31;6.20;89.10
52787;DHT22;38661;53.152;5.846;2023-04-01T22:32:56;6.10;88.40
52787;DHT22;38661;53.152;5.846;2023-04-01T22:35:31;6.10;88.60
52787;DHT22;38661;53.152;5.846;2023-04-01T22:40:54;6.10;88.60
52787;DHT22;38661;53.152;5.846;2023-04-01T22:43:37;6.10;88.90
52787;DHT22;38661;53.152;5.846;2023-04-01T22:48:42;6.00;88.60
52787;DHT22;38661;53.152;5.846;2023-04-01T22:51:42;6.10;88.60
52787;DHT22;38661;53.152;5.846;2023-04-01T22:54:29;6.10;88.80
52787;DHT22;38661;53.152;5.846;2023-04-01T22:57:04;6.00;87.80
52787;DHT22;38661;53.152;5.846;2023-04-01T22:59:46;6.00;88.40
52787;DHT22;38661;53.152;5.846;2023-04-01T23:02:28;6.00;88.70
52787;DHT22;38661;53.152;5.846;2023-04-01T23:04:57;6.00;88.30
52787;DHT22;38661;53.152;5.846;2023-04-01T23:10:25;5.90;88.10
52787;DHT22;38661;53.152;5.846;2023-04-01T23:12:57;5.80;88.50
52787;DHT22;38661;53.152;5.846;2023-04-01T23:15:23;5.80;88.60
52787;DHT22;38661;53.152;5.846;2023-04-01T23:33:59;5.60;88.20
52787;DHT22;38661;53.152;5.846;2023-04-01T23:36:27;5.60;88.10
52787;DHT22;38661;53.152;5.846;2023-04-01T23:38:53;5.60;87.80
52787;DHT22;38661;53.152;5.846;2023-04-01T23:41:28;5.50;87.50
52787;DHT22;38661;53.152;5.846;2023-04-01T23:44:09;5.40;86.10
52787;DHT22;38661;53.152;5.846;2023-04-01T23:46:36;5.30;86.90
52787;DHT22;38661;53.152;5.846;2023-04-01T23:49:09;5.30;86.60
52787;DHT22;38661;53.152;5.846;2023-04-01T23:51:39;5.20;86.90
52787;DHT22;38661;53.152;5.846;2023-04-01T23:54:24;5.30;87.60
52787;DHT22;38661;53.152;5.846;2023-04-01T23:56:54;5.30;88.20
52787;DHT22;38661;53.152;5.846;2023-04-01T23:59:32;5.30;87.70
